createdAt,value
2018-07-07T00:00:39.972Z,0
2018-07-07T00:01:49.108Z,0
2018-07-07T00:02:58.244Z,0
2018-07-07T00:04:07.103Z,0
2018-07-07T00:05:16.346Z,0
2018-07-07T00:06:25.208Z,0
2018-07-07T00:07:34.066Z,0
2018-07-07T00:08:42.928Z,0
2018-07-07T00:09:51.787Z,0
2018-07-07T00:11:00.652Z,0
2018-07-07T00:12:09.510Z,0
2018-07-07T00:13:18.647Z,0
2018-07-07T00:14:27.510Z,0
2018-07-07T00:15:36.927Z,0
2018-07-07T00:16:45.890Z,0
2018-07-07T00:17:55.033Z,0
2018-07-07T00:19:03.892Z,0
2018-07-07T00:20:12.753Z,0
2018-07-07T00:21:21.614Z,0
2018-07-07T00:22:30.475Z,0
2018-07-07T00:23:39.338Z,0
2018-07-07T00:24:48.478Z,0
2018-07-07T00:25:57.338Z,0
2018-07-07T00:27:06.233Z,0
2018-07-07T00:28:15.056Z,0
2018-07-07T00:29:23.919Z,0
2018-07-07T00:30:32.782Z,0
2018-07-07T00:31:41.641Z,0
2018-07-07T00:32:50.779Z,0
2018-07-07T00:33:59.640Z,0
2018-07-07T00:35:08.499Z,0
2018-07-07T00:36:17.360Z,0
2018-07-07T00:37:26.220Z,0
2018-07-07T00:38:35.082Z,0
2018-07-07T00:39:43.945Z,0
2018-07-07T00:40:53.079Z,0
2018-07-07T00:42:02.219Z,0
2018-07-07T00:43:11.080Z,0
2018-07-07T00:44:19.943Z,0
2018-07-07T00:45:29.229Z,0
2018-07-07T00:46:38.090Z,0
2018-07-07T00:47:47.233Z,0
2018-07-07T00:48:56.372Z,0
2018-07-07T00:50:05.508Z,0
2018-07-07T00:51:14.468Z,0
2018-07-07T00:52:23.327Z,0
2018-07-07T00:53:32.185Z,0
2018-07-07T00:54:41.049Z,0
2018-07-07T00:55:49.911Z,0
2018-07-07T00:56:59.379Z,0
2018-07-07T00:58:08.516Z,0
2018-07-07T00:59:17.655Z,0
2018-07-07T01:00:27.073Z,0
2018-07-07T01:01:35.932Z,0
2018-07-07T01:02:44.790Z,0
2018-07-07T01:03:53.926Z,0
2018-07-07T01:05:02.789Z,0
2018-07-07T01:06:11.649Z,0
2018-07-07T01:07:20.511Z,0
2018-07-07T01:08:29.373Z,0
2018-07-07T01:09:38.232Z,0
2018-07-07T01:10:47.091Z,0
2018-07-07T01:11:56.229Z,0
2018-07-07T01:13:05.087Z,0
2018-07-07T01:14:13.945Z,0
2018-07-07T01:15:22.804Z,0
2018-07-07T01:16:31.669Z,0
2018-07-07T01:17:40.525Z,0
2018-07-07T01:18:49.666Z,0
2018-07-07T01:19:58.954Z,0
2018-07-07T01:21:07.816Z,0
2018-07-07T01:22:16.673Z,0
2018-07-07T01:23:25.533Z,0
2018-07-07T01:24:34.676Z,0
2018-07-07T01:25:43.539Z,0
2018-07-07T01:26:52.398Z,0
2018-07-07T01:28:01.535Z,0
2018-07-07T01:29:10.393Z,0
2018-07-07T01:30:19.250Z,0
2018-07-07T01:31:28.111Z,0
2018-07-07T01:32:36.971Z,0
2018-07-07T01:33:46.112Z,0
2018-07-07T01:34:55.251Z,0
2018-07-07T01:36:04.113Z,0
2018-07-07T01:37:13.530Z,0
2018-07-07T01:38:22.390Z,0
2018-07-07T01:39:31.254Z,0
2018-07-07T01:40:40.112Z,0
2018-07-07T01:41:48.971Z,0
2018-07-07T01:42:57.838Z,0
2018-07-07T01:44:06.697Z,0
2018-07-07T01:45:15.837Z,0
2018-07-07T01:46:24.698Z,0
2018-07-07T01:47:33.556Z,0
2018-07-07T01:48:42.788Z,0
2018-07-07T01:49:51.630Z,0
2018-07-07T01:51:00.767Z,0
2018-07-07T01:52:10.176Z,0
2018-07-07T01:53:19.036Z,0
2018-07-07T01:54:28.171Z,0
2018-07-07T01:55:37.031Z,0
2018-07-07T01:56:45.889Z,0
2018-07-07T01:57:54.748Z,0
2018-07-07T01:59:03.608Z,0
2018-07-07T02:00:12.470Z,0
2018-07-07T02:01:21.332Z,0
2018-07-07T02:02:30.192Z,0
2018-07-07T02:03:39.058Z,0
2018-07-07T02:04:47.917Z,0
2018-07-07T02:05:56.778Z,0
2018-07-07T02:07:05.960Z,0
2018-07-07T02:08:14.817Z,0
2018-07-07T02:09:23.957Z,0
2018-07-07T02:10:32.848Z,0
2018-07-07T02:11:41.678Z,0
2018-07-07T02:12:50.539Z,0
2018-07-07T02:13:59.672Z,0
2018-07-07T02:15:08.532Z,0
2018-07-07T02:16:17.666Z,0
2018-07-07T02:17:26.681Z,0
2018-07-07T02:18:35.540Z,0
2018-07-07T02:19:44.675Z,0
2018-07-07T02:20:53.533Z,0
2018-07-07T02:22:02.396Z,0
2018-07-07T02:23:11.910Z,0
2018-07-07T02:24:20.771Z,0
2018-07-07T02:25:29.631Z,0
2018-07-07T02:26:38.491Z,0
2018-07-07T02:27:47.349Z,0
2018-07-07T02:28:56.560Z,0
2018-07-07T02:30:05.421Z,0
2018-07-07T02:31:14.562Z,0
2018-07-07T02:32:24.566Z,0
2018-07-07T02:33:33.998Z,0
2018-07-07T02:34:43.134Z,0
2018-07-07T02:35:52.824Z,0
2018-07-07T02:37:02.532Z,0
2018-07-07T02:38:11.946Z,0
2018-07-07T02:39:21.088Z,0
2018-07-07T02:40:30.102Z,0
2018-07-07T02:41:39.520Z,0
2018-07-07T02:42:48.988Z,0
2018-07-07T02:43:58.125Z,0
2018-07-07T02:45:07.542Z,0
2018-07-07T02:46:16.422Z,0
2018-07-07T02:47:25.257Z,0
2018-07-07T02:48:34.393Z,0
2018-07-07T02:49:43.814Z,0
2018-07-07T02:50:52.949Z,0
2018-07-07T02:52:01.812Z,0
2018-07-07T02:53:10.675Z,0
2018-07-07T02:54:20.364Z,0
2018-07-07T02:55:29.780Z,0
2018-07-07T02:56:39.195Z,0
2018-07-07T02:57:48.685Z,0
2018-07-07T02:58:58.108Z,0
2018-07-07T03:00:06.977Z,0
2018-07-07T03:01:15.834Z,0
2018-07-07T03:02:24.692Z,5
2018-07-07T03:03:33.657Z,5
2018-07-07T03:04:42.796Z,5
2018-07-07T03:05:51.931Z,5
2018-07-07T03:07:01.066Z,5
2018-07-07T03:08:10.206Z,5
2018-07-07T03:09:19.349Z,5
2018-07-07T03:10:28.773Z,5
2018-07-07T03:11:37.911Z,5
2018-07-07T03:12:46.773Z,10
2018-07-07T03:13:55.913Z,10
2018-07-07T03:15:05.199Z,10
2018-07-07T03:16:14.061Z,10
2018-07-07T03:17:22.922Z,10
2018-07-07T03:18:31.793Z,10
2018-07-07T03:19:40.647Z,10
2018-07-07T03:20:50.136Z,10
2018-07-07T03:21:59.283Z,10
2018-07-07T03:23:08.702Z,10
2018-07-07T03:24:17.848Z,10
2018-07-07T03:25:27.261Z,10
2018-07-07T03:26:36.552Z,10
2018-07-07T03:27:45.408Z,10
2018-07-07T03:28:54.271Z,10
2018-07-07T03:30:03.405Z,15
2018-07-07T03:31:12.816Z,20
2018-07-07T03:32:22.591Z,20
2018-07-07T03:33:31.724Z,20
2018-07-07T03:34:40.581Z,20
2018-07-07T03:35:49.447Z,20
2018-07-07T03:36:58.304Z,20
2018-07-07T03:38:07.168Z,20
2018-07-07T03:39:16.303Z,20
2018-07-07T03:40:25.200Z,20
2018-07-07T03:41:34.023Z,25
2018-07-07T03:42:43.157Z,25
2018-07-07T03:43:52.166Z,30
2018-07-07T03:45:01.027Z,30
2018-07-07T03:46:09.887Z,35
2018-07-07T03:47:18.848Z,35
2018-07-07T03:48:27.706Z,35
2018-07-07T03:49:37.127Z,40
2018-07-07T03:50:45.986Z,40
2018-07-07T03:51:54.847Z,45
2018-07-07T03:53:03.714Z,45
2018-07-07T03:54:12.583Z,50
2018-07-07T03:55:21.793Z,55
2018-07-07T03:56:30.654Z,55
2018-07-07T03:57:39.511Z,55
2018-07-07T03:58:48.405Z,55
2018-07-07T03:59:57.232Z,60
2018-07-07T04:01:06.242Z,55
2018-07-07T04:02:15.102Z,60
2018-07-07T04:03:23.961Z,60
2018-07-07T04:04:32.825Z,60
2018-07-07T04:05:41.686Z,60
2018-07-07T04:06:50.544Z,65
2018-07-07T04:07:59.405Z,65
2018-07-07T04:09:08.268Z,65
2018-07-07T04:10:17.127Z,70
2018-07-07T04:11:26.273Z,70
2018-07-07T04:12:35.133Z,70
2018-07-07T04:13:44.268Z,70
2018-07-07T04:14:53.401Z,75
2018-07-07T04:16:02.538Z,75
2018-07-07T04:17:11.957Z,75
2018-07-07T04:18:20.966Z,75
2018-07-07T04:19:29.825Z,80
2018-07-07T04:20:38.686Z,80
2018-07-07T04:21:48.098Z,80
2018-07-07T04:22:56.958Z,80
2018-07-07T04:24:06.127Z,80
2018-07-07T04:25:15.263Z,80
2018-07-07T04:26:24.139Z,85
2018-07-07T04:27:33.278Z,95
2018-07-07T04:28:42.135Z,105
2018-07-07T04:29:50.995Z,105
2018-07-07T04:31:00.133Z,100
2018-07-07T04:32:08.993Z,100
2018-07-07T04:33:17.851Z,95
2018-07-07T04:34:26.710Z,95
2018-07-07T04:35:35.569Z,95
2018-07-07T04:36:44.429Z,95
2018-07-07T04:37:53.293Z,100
2018-07-07T04:39:02.154Z,105
2018-07-07T04:40:11.010Z,115
2018-07-07T04:41:19.874Z,115
2018-07-07T04:42:28.734Z,110
2018-07-07T04:43:37.595Z,110
2018-07-07T04:44:46.731Z,115
2018-07-07T04:45:55.899Z,115
2018-07-07T04:47:05.472Z,120
2018-07-07T04:48:14.333Z,120
2018-07-07T04:49:23.193Z,120
2018-07-07T04:50:32.051Z,115
2018-07-07T04:51:40.912Z,110
2018-07-07T04:52:49.925Z,110
2018-07-07T04:53:59.345Z,115
2018-07-07T04:55:08.205Z,115
2018-07-07T04:56:17.066Z,120
2018-07-07T04:57:25.928Z,125
2018-07-07T04:58:35.690Z,130
2018-07-07T04:59:44.551Z,135
2018-07-07T05:00:53.410Z,140
2018-07-07T05:02:02.548Z,140
2018-07-07T05:03:11.410Z,140
2018-07-07T05:04:20.421Z,145
2018-07-07T05:05:29.560Z,145
2018-07-07T05:06:38.423Z,145
2018-07-07T05:07:47.282Z,145
2018-07-07T05:08:56.142Z,145
2018-07-07T05:10:05.381Z,140
2018-07-07T05:11:14.521Z,135
2018-07-07T05:12:23.382Z,130
2018-07-07T05:13:32.800Z,130
2018-07-07T05:14:41.659Z,135
2018-07-07T05:15:50.522Z,125
2018-07-07T05:16:59.657Z,120
2018-07-07T05:18:08.795Z,130
2018-07-07T05:19:17.933Z,135
2018-07-07T05:20:26.796Z,145
2018-07-07T05:21:36.358Z,155
2018-07-07T05:22:45.217Z,165
2018-07-07T05:23:54.086Z,170
2018-07-07T05:25:02.953Z,175
2018-07-07T05:26:11.816Z,180
2018-07-07T05:27:20.677Z,190
2018-07-07T05:28:29.814Z,190
2018-07-07T05:29:38.674Z,190
2018-07-07T05:30:47.540Z,180
2018-07-07T05:31:56.712Z,175
2018-07-07T05:33:05.699Z,185
2018-07-07T05:34:14.557Z,185
2018-07-07T05:35:23.419Z,185
2018-07-07T05:36:32.280Z,195
2018-07-07T05:37:41.141Z,195
2018-07-07T05:38:50.353Z,195
2018-07-07T05:39:59.216Z,195
2018-07-07T05:41:08.084Z,200
2018-07-07T05:42:16.947Z,200
2018-07-07T05:43:26.089Z,205
2018-07-07T05:44:35.511Z,205
2018-07-07T05:45:44.654Z,205
2018-07-07T05:46:53.792Z,200
2018-07-07T05:48:02.660Z,215
2018-07-07T05:49:11.526Z,220
2018-07-07T05:50:20.382Z,210
2018-07-07T05:51:29.246Z,210
2018-07-07T05:52:38.387Z,180
2018-07-07T05:53:47.248Z,165
2018-07-07T05:54:56.110Z,165
2018-07-07T05:56:04.974Z,160
2018-07-07T05:57:13.835Z,155
2018-07-07T05:58:22.974Z,170
2018-07-07T05:59:31.837Z,175
2018-07-07T06:00:40.700Z,200
2018-07-07T06:01:49.709Z,230
2018-07-07T06:02:58.572Z,245
2018-07-07T06:04:07.435Z,240
2018-07-07T06:05:16.296Z,245
2018-07-07T06:06:25.165Z,235
2018-07-07T06:07:34.452Z,215
2018-07-07T06:08:43.318Z,200
2018-07-07T06:09:52.179Z,175
2018-07-07T06:11:01.038Z,170
2018-07-07T06:12:09.904Z,160
2018-07-07T06:13:19.471Z,170
2018-07-07T06:14:29.126Z,170
2018-07-07T06:15:37.894Z,175
2018-07-07T06:16:46.755Z,175
2018-07-07T06:17:55.891Z,165
2018-07-07T06:19:04.755Z,170
2018-07-07T06:20:13.617Z,175
2018-07-07T06:21:22.756Z,180
2018-07-07T06:22:31.618Z,170
2018-07-07T06:23:40.480Z,155
2018-07-07T06:24:49.693Z,175
2018-07-07T06:25:58.554Z,180
2018-07-07T06:27:07.971Z,190
2018-07-07T06:28:16.830Z,180
2018-07-07T06:29:25.705Z,180
2018-07-07T06:30:34.558Z,185
2018-07-07T06:31:43.419Z,220
2018-07-07T06:32:52.283Z,280
2018-07-07T06:34:01.147Z,205
2018-07-07T06:35:10.282Z,165
2018-07-07T06:36:19.496Z,180
2018-07-07T06:37:29.127Z,200
2018-07-07T06:38:37.986Z,215
2018-07-07T06:39:46.847Z,230
2018-07-07T06:40:55.708Z,250
2018-07-07T06:42:04.570Z,245
2018-07-07T06:43:13.433Z,240
2018-07-07T06:44:22.295Z,285
2018-07-07T06:45:31.162Z,300
2018-07-07T06:46:40.024Z,320
2018-07-07T06:47:49.179Z,335
2018-07-07T06:48:58.041Z,345
2018-07-07T06:50:06.907Z,345
2018-07-07T06:51:15.765Z,335
2018-07-07T06:52:24.628Z,340
2018-07-07T06:53:33.487Z,350
2018-07-07T06:54:42.347Z,330
2018-07-07T06:55:51.209Z,290
2018-07-07T06:57:00.075Z,290
2018-07-07T06:58:08.938Z,300
2018-07-07T06:59:18.231Z,300
2018-07-07T07:00:27.102Z,280
2018-07-07T07:01:35.961Z,255
2018-07-07T07:02:45.104Z,305
2018-07-07T07:03:53.969Z,330
2018-07-07T07:05:02.832Z,375
2018-07-07T07:06:11.692Z,295
2018-07-07T07:07:20.554Z,230
2018-07-07T07:08:29.699Z,190
2018-07-07T07:09:38.562Z,205
2018-07-07T07:10:47.425Z,255
2018-07-07T07:11:56.623Z,285
2018-07-07T07:13:05.476Z,320
2018-07-07T07:14:14.340Z,395
2018-07-07T07:15:23.202Z,410
2018-07-07T07:16:32.220Z,430
2018-07-07T07:17:41.080Z,405
2018-07-07T07:18:49.945Z,425
2018-07-07T07:19:59.491Z,410
2018-07-07T07:21:08.268Z,355
2018-07-07T07:22:17.557Z,330
2018-07-07T07:23:26.696Z,310
2018-07-07T07:24:35.558Z,235
2018-07-07T07:25:44.425Z,210
2018-07-07T07:26:53.287Z,245
2018-07-07T07:28:02.704Z,260
2018-07-07T07:29:11.569Z,230
2018-07-07T07:30:20.433Z,195
2018-07-07T07:31:29.297Z,200
2018-07-07T07:32:38.466Z,245
2018-07-07T07:33:47.607Z,380
2018-07-07T07:34:56.754Z,420
2018-07-07T07:36:05.899Z,415
2018-07-07T07:37:14.762Z,425
2018-07-07T07:38:23.628Z,495
2018-07-07T07:39:32.642Z,455
2018-07-07T07:40:41.505Z,460
2018-07-07T07:41:50.370Z,445
2018-07-07T07:42:59.234Z,345
2018-07-07T07:44:08.387Z,275
2018-07-07T07:45:17.405Z,325
2018-07-07T07:46:26.548Z,290
2018-07-07T07:47:35.424Z,290
2018-07-07T07:48:44.276Z,260
2018-07-07T07:49:53.188Z,280
2018-07-07T07:51:02.006Z,315
2018-07-07T07:52:11.147Z,400
2018-07-07T07:53:20.016Z,480
2018-07-07T07:54:28.884Z,455
2018-07-07T07:55:38.038Z,390
2018-07-07T07:56:47.460Z,380
2018-07-07T07:57:56.607Z,410
2018-07-07T07:59:05.813Z,495
2018-07-07T08:00:15.042Z,525
2018-07-07T08:01:23.906Z,490
2018-07-07T08:02:32.770Z,470
2018-07-07T08:03:41.636Z,520
2018-07-07T08:04:50.561Z,550
2018-07-07T08:05:59.719Z,535
2018-07-07T08:07:08.584Z,520
2018-07-07T08:08:17.727Z,520
2018-07-07T08:09:26.865Z,555
2018-07-07T08:10:35.728Z,565
2018-07-07T08:11:44.869Z,540
2018-07-07T08:12:53.735Z,530
2018-07-07T08:14:02.888Z,485
2018-07-07T08:15:11.750Z,495
2018-07-07T08:16:20.898Z,465
2018-07-07T08:17:30.037Z,495
2018-07-07T08:18:38.904Z,425
2018-07-07T08:19:47.918Z,375
2018-07-07T08:20:56.793Z,445
2018-07-07T08:22:05.953Z,545
2018-07-07T08:23:14.819Z,515
2018-07-07T08:24:23.684Z,485
2018-07-07T08:25:32.548Z,470
2018-07-07T08:26:41.420Z,450
2018-07-07T08:27:50.280Z,550
2018-07-07T08:28:59.420Z,585
2018-07-07T08:30:08.289Z,540
2018-07-07T08:31:17.149Z,370
2018-07-07T08:32:26.286Z,350
2018-07-07T08:33:35.158Z,360
2018-07-07T08:34:44.014Z,395
2018-07-07T08:35:52.881Z,415
2018-07-07T08:37:02.124Z,440
2018-07-07T08:38:11.267Z,455
2018-07-07T08:39:20.133Z,485
2018-07-07T08:40:29.275Z,510
2018-07-07T08:41:38.146Z,535
2018-07-07T08:42:47.286Z,575
2018-07-07T08:43:56.149Z,555
2018-07-07T08:45:05.291Z,570
2018-07-07T08:46:14.155Z,595
2018-07-07T08:47:23.020Z,595
2018-07-07T08:48:32.313Z,560
2018-07-07T08:49:41.179Z,560
2018-07-07T08:50:50.334Z,520
2018-07-07T08:51:59.474Z,460
2018-07-07T08:53:08.343Z,540
2018-07-07T08:54:17.608Z,555
2018-07-07T08:55:27.215Z,555
2018-07-07T08:56:36.082Z,495
2018-07-07T08:57:44.949Z,445
2018-07-07T08:58:53.814Z,435
2018-07-07T09:00:02.960Z,395
2018-07-07T09:01:11.825Z,390
2018-07-07T09:02:20.690Z,420
2018-07-07T09:03:29.558Z,425
2018-07-07T09:04:38.531Z,505
2018-07-07T09:05:47.395Z,505
2018-07-07T09:06:56.540Z,560
2018-07-07T09:08:05.404Z,615
2018-07-07T09:09:14.549Z,645
2018-07-07T09:10:23.416Z,665
2018-07-07T09:11:32.283Z,675
2018-07-07T09:12:41.151Z,665
2018-07-07T09:13:50.017Z,660
2018-07-07T09:14:58.879Z,600
2018-07-07T09:16:08.030Z,510
2018-07-07T09:17:17.178Z,450
2018-07-07T09:18:26.045Z,450
2018-07-07T09:19:34.916Z,540
2018-07-07T09:20:44.074Z,620
2018-07-07T09:21:53.219Z,635
2018-07-07T09:23:02.085Z,615
2018-07-07T09:24:10.962Z,555
2018-07-07T09:25:19.839Z,570
2018-07-07T09:26:28.703Z,590
2018-07-07T09:27:38.221Z,580
2018-07-07T09:28:47.963Z,590
2018-07-07T09:29:58.127Z,615
2018-07-07T09:31:08.817Z,630
2018-07-07T09:32:18.504Z,620
2018-07-07T09:33:27.645Z,550
2018-07-07T09:34:36.791Z,505
2018-07-07T09:35:45.655Z,565
2018-07-07T09:36:54.521Z,600
2018-07-07T09:38:03.666Z,590
2018-07-07T09:39:12.803Z,570
2018-07-07T09:40:21.681Z,610
2018-07-07T09:41:30.557Z,655
2018-07-07T09:42:39.584Z,650
2018-07-07T09:43:48.999Z,620
2018-07-07T09:44:57.868Z,660
2018-07-07T09:46:06.734Z,625
2018-07-07T09:47:15.656Z,600
2018-07-07T09:48:24.799Z,630
2018-07-07T09:49:33.939Z,750
2018-07-07T09:50:42.805Z,735
2018-07-07T09:51:51.671Z,630
2018-07-07T09:53:00.812Z,615
2018-07-07T09:54:09.779Z,645
2018-07-07T09:55:18.923Z,645
2018-07-07T09:56:28.889Z,600
2018-07-07T09:57:37.761Z,600
2018-07-07T09:58:46.632Z,600
2018-07-07T09:59:55.722Z,685
2018-07-07T10:01:04.881Z,690
2018-07-07T10:02:13.767Z,695
2018-07-07T10:03:22.635Z,715
2018-07-07T10:04:32.089Z,715
2018-07-07T10:05:40.953Z,635
2018-07-07T10:06:49.817Z,615
2018-07-07T10:07:58.682Z,670
2018-07-07T10:09:07.548Z,650
2018-07-07T10:10:16.417Z,520
2018-07-07T10:11:25.435Z,485
2018-07-07T10:12:34.300Z,420
2018-07-07T10:13:43.445Z,520
2018-07-07T10:14:52.311Z,705
2018-07-07T10:16:01.177Z,630
2018-07-07T10:17:10.042Z,580
2018-07-07T10:18:18.907Z,560
2018-07-07T10:19:27.771Z,560
2018-07-07T10:20:36.692Z,615
2018-07-07T10:21:45.502Z,605
2018-07-07T10:22:54.366Z,675
2018-07-07T10:24:03.514Z,745
2018-07-07T10:25:12.933Z,685
2018-07-07T10:26:22.467Z,550
2018-07-07T10:27:31.267Z,495
2018-07-07T10:28:40.685Z,550
2018-07-07T10:29:50.582Z,490
2018-07-07T10:30:59.449Z,545
2018-07-07T10:32:08.403Z,745
2018-07-07T10:33:17.267Z,645
2018-07-07T10:34:26.157Z,600
2018-07-07T10:35:35.022Z,595
2018-07-07T10:36:43.890Z,590
2018-07-07T10:37:53.039Z,550
2018-07-07T10:39:01.909Z,490
2018-07-07T10:40:10.774Z,525
2018-07-07T10:41:19.639Z,465
2018-07-07T10:42:29.060Z,460
2018-07-07T10:43:37.933Z,405
2018-07-07T10:44:46.849Z,490
2018-07-07T10:45:57.031Z,490
2018-07-07T10:47:06.086Z,460
2018-07-07T10:48:14.948Z,550
2018-07-07T10:49:24.149Z,540
2018-07-07T10:50:33.089Z,590
2018-07-07T10:51:41.951Z,460
2018-07-07T10:52:50.817Z,430
2018-07-07T10:53:59.687Z,585
2018-07-07T10:55:08.698Z,670
2018-07-07T10:56:17.568Z,665
2018-07-07T10:57:26.735Z,650
2018-07-07T10:58:35.610Z,610
2018-07-07T10:59:45.047Z,570
2018-07-07T11:00:54.469Z,555
2018-07-07T11:02:03.945Z,480
2018-07-07T11:03:12.822Z,560
2018-07-07T11:04:22.053Z,520
2018-07-07T11:05:31.038Z,420
2018-07-07T11:06:40.192Z,455
2018-07-07T11:07:49.616Z,525
2018-07-07T11:08:58.759Z,635
2018-07-07T11:10:07.654Z,650
2018-07-07T11:11:16.670Z,640
2018-07-07T11:12:25.535Z,575
2018-07-07T11:13:34.406Z,410
2018-07-07T11:14:43.417Z,395
2018-07-07T11:15:52.345Z,340
2018-07-07T11:17:01.208Z,335
2018-07-07T11:18:10.088Z,340
2018-07-07T11:19:19.012Z,375
2018-07-07T11:20:27.874Z,365
2018-07-07T11:21:36.740Z,445
2018-07-07T11:22:45.609Z,440
2018-07-07T11:23:54.472Z,470
2018-07-07T11:25:03.889Z,445
2018-07-07T11:26:12.830Z,510
2018-07-07T11:27:21.673Z,605
2018-07-07T11:28:30.540Z,660
2018-07-07T11:29:39.424Z,780
2018-07-07T11:30:48.570Z,715
2018-07-07T11:31:57.435Z,690
2018-07-07T11:33:06.302Z,685
2018-07-07T11:34:15.320Z,545
2018-07-07T11:35:24.188Z,545
2018-07-07T11:36:33.186Z,515
2018-07-07T11:37:41.921Z,520
2018-07-07T11:38:50.787Z,460
2018-07-07T11:40:00.363Z,440
2018-07-07T11:41:09.228Z,440
2018-07-07T11:42:18.210Z,455
2018-07-07T11:43:27.335Z,515
2018-07-07T11:44:36.233Z,640
2018-07-07T11:45:45.569Z,780
2018-07-07T11:46:54.465Z,700
2018-07-07T11:48:04.079Z,575
2018-07-07T11:49:13.541Z,555
2018-07-07T11:50:23.254Z,525
2018-07-07T11:51:32.905Z,545
2018-07-07T11:52:42.754Z,555
2018-07-07T11:53:52.770Z,510
2018-07-07T11:55:02.523Z,510
2018-07-07T11:56:12.963Z,560
2018-07-07T11:57:22.959Z,720
2018-07-07T11:58:32.384Z,855
2018-07-07T11:59:41.253Z,3330
2018-07-07T12:00:50.119Z,3060
2018-07-07T12:01:59.035Z,3540
2018-07-07T12:03:08.251Z,610
2018-07-07T12:04:17.112Z,3015
2018-07-07T12:05:25.992Z,3125
2018-07-07T12:06:34.870Z,2875
2018-07-07T12:07:43.731Z,2945
2018-07-07T12:08:53.024Z,2870
2018-07-07T12:10:02.171Z,3260
2018-07-07T12:11:11.043Z,3665
2018-07-07T12:12:19.910Z,3345
2018-07-07T12:13:28.776Z,3480
2018-07-07T12:14:38.412Z,3455
2018-07-07T12:15:47.296Z,3480
2018-07-07T12:16:56.168Z,3710
2018-07-07T12:18:05.041Z,1010
2018-07-07T12:19:13.917Z,1205
2018-07-07T12:20:22.792Z,2385
2018-07-07T12:21:31.951Z,1045
2018-07-07T12:22:40.824Z,1385
2018-07-07T12:23:49.696Z,3660
2018-07-07T12:24:58.575Z,3680
2018-07-07T12:26:07.498Z,3435
2018-07-07T12:27:16.369Z,3920
2018-07-07T12:28:25.516Z,4070
2018-07-07T12:29:34.398Z,3720
2018-07-07T12:30:43.271Z,2120
2018-07-07T12:31:52.144Z,3630
2018-07-07T12:33:01.582Z,4025
2018-07-07T12:34:10.457Z,1145
2018-07-07T12:35:19.604Z,3420
2018-07-07T12:36:28.480Z,3685
2018-07-07T12:37:37.456Z,3720
2018-07-07T12:38:46.610Z,3835
2018-07-07T12:39:55.542Z,3995
2018-07-07T12:41:04.703Z,990
2018-07-07T12:42:13.611Z,985
2018-07-07T12:43:23.591Z,1085
2018-07-07T12:44:32.476Z,3455
2018-07-07T12:45:41.354Z,1225
2018-07-07T12:46:50.232Z,1620
2018-07-07T12:47:59.143Z,3695
2018-07-07T12:49:08.040Z,885
2018-07-07T12:50:16.957Z,3410
2018-07-07T12:51:25.830Z,3490
2018-07-07T12:52:34.812Z,3540
2018-07-07T12:53:43.861Z,3840
2018-07-07T12:54:52.798Z,3315
2018-07-07T12:56:01.684Z,3325
2018-07-07T12:57:11.125Z,3420
2018-07-07T12:58:20.614Z,3455
2018-07-07T12:59:29.501Z,3345
2018-07-07T13:00:38.374Z,3500
2018-07-07T13:01:47.576Z,2465
2018-07-07T13:02:56.487Z,1110
2018-07-07T13:04:05.639Z,1100
2018-07-07T13:05:14.568Z,3650
2018-07-07T13:06:23.517Z,3680
2018-07-07T13:07:32.429Z,3965
2018-07-07T13:08:41.334Z,3910
2018-07-07T13:09:50.225Z,3760
2018-07-07T13:10:59.441Z,1370
2018-07-07T13:12:08.341Z,2280
2018-07-07T13:13:17.256Z,3745
2018-07-07T13:14:26.441Z,3695
2018-07-07T13:15:35.361Z,3870
2018-07-07T13:16:44.258Z,3890
2018-07-07T13:17:53.278Z,3510
2018-07-07T13:19:02.172Z,3875
2018-07-07T13:20:11.459Z,4020
2018-07-07T13:21:20.352Z,3725
2018-07-07T13:22:29.800Z,3765
2018-07-07T13:23:38.890Z,3820
2018-07-07T13:24:48.067Z,4000
2018-07-07T13:25:56.989Z,3900
2018-07-07T13:27:06.166Z,4090
2018-07-07T13:28:15.107Z,3915
2018-07-07T13:29:24.146Z,3845
2018-07-07T13:30:33.665Z,3835
2018-07-07T13:31:42.610Z,3990
2018-07-07T13:32:51.889Z,4005
2018-07-07T13:34:01.168Z,3810
2018-07-07T13:35:10.097Z,4065
2018-07-07T13:36:19.081Z,1165
2018-07-07T13:37:27.976Z,4285
2018-07-07T13:38:37.647Z,885
2018-07-07T13:39:47.117Z,3900
2018-07-07T13:40:56.237Z,4185
2018-07-07T13:42:05.389Z,3955
2018-07-07T13:43:14.500Z,3830
2018-07-07T13:44:23.462Z,3650
2018-07-07T13:45:32.575Z,2655
2018-07-07T13:46:42.151Z,3335
2018-07-07T13:47:51.162Z,3775
2018-07-07T13:49:00.231Z,3685
2018-07-07T13:50:09.661Z,3535
2018-07-07T13:51:18.585Z,3640
2018-07-07T13:52:27.796Z,3790
2018-07-07T13:53:37.271Z,3335
2018-07-07T13:54:46.596Z,935
2018-07-07T13:55:55.495Z,3195
2018-07-07T13:57:04.680Z,3395
2018-07-07T13:58:13.588Z,3150
2018-07-07T13:59:22.511Z,3485
2018-07-07T14:00:31.427Z,3555
2018-07-07T14:01:40.721Z,3625
2018-07-07T14:02:50.006Z,3560
2018-07-07T14:03:59.889Z,3960
2018-07-07T14:05:08.795Z,4305
2018-07-07T14:06:17.975Z,2685
2018-07-07T14:07:27.490Z,3985
2018-07-07T14:08:36.430Z,3800
2018-07-07T14:09:45.692Z,3725
2018-07-07T14:10:54.764Z,3690
2018-07-07T14:12:04.315Z,3670
2018-07-07T14:13:13.616Z,3555
2018-07-07T14:14:22.862Z,3605
2018-07-07T14:15:32.163Z,3600
2018-07-07T14:16:41.572Z,3560
2018-07-07T14:17:50.647Z,3675
2018-07-07T14:18:59.533Z,3660
2018-07-07T14:20:08.471Z,3770
2018-07-07T14:21:17.686Z,3730
2018-07-07T14:22:26.716Z,3585
2018-07-07T14:23:35.712Z,3215
2018-07-07T14:24:44.670Z,3365
2018-07-07T14:25:53.861Z,3885
2018-07-07T14:27:02.935Z,3595
2018-07-07T14:28:12.112Z,3530
2018-07-07T14:29:21.741Z,3625
2018-07-07T14:30:30.776Z,3620
2018-07-07T14:31:39.759Z,3430
2018-07-07T14:32:49.015Z,3625
2018-07-07T14:33:57.934Z,3955
2018-07-07T14:35:07.705Z,3860
2018-07-07T14:36:17.042Z,3670
2018-07-07T14:37:25.923Z,3585
2018-07-07T14:38:35.401Z,3460
2018-07-07T14:39:44.305Z,3420
2018-07-07T14:40:53.479Z,3475
2018-07-07T14:42:02.391Z,3385
2018-07-07T14:43:11.589Z,3680
2018-07-07T14:44:20.667Z,3605
2018-07-07T14:45:30.129Z,3695
2018-07-07T14:46:39.456Z,3600
2018-07-07T14:47:48.355Z,3765
2018-07-07T14:48:57.283Z,3635
2018-07-07T14:50:06.363Z,3550
2018-07-07T14:51:15.663Z,3690
2018-07-07T14:52:24.919Z,3820
2018-07-07T14:53:34.116Z,3860
2018-07-07T14:54:43.708Z,3445
2018-07-07T14:55:52.830Z,3460
2018-07-07T14:57:02.007Z,3180
2018-07-07T14:58:11.115Z,3155
2018-07-07T14:59:19.897Z,3435
2018-07-07T15:00:29.147Z,3345
2018-07-07T15:01:38.133Z,3470
2018-07-07T15:02:47.080Z,2995
2018-07-07T15:03:55.962Z,3185
2018-07-07T15:05:04.918Z,3535
2018-07-07T15:06:13.838Z,3110
2018-07-07T15:07:22.908Z,3145
2018-07-07T15:08:31.811Z,2580
2018-07-07T15:09:40.738Z,3220
2018-07-07T15:10:49.676Z,3280
2018-07-07T15:11:58.632Z,3195
2018-07-07T15:13:07.659Z,2910
2018-07-07T15:14:16.681Z,2885
2018-07-07T15:15:25.555Z,2820
2018-07-07T15:16:34.432Z,2795
2018-07-07T15:17:43.312Z,2850
2018-07-07T15:18:52.565Z,2925
2018-07-07T15:20:01.481Z,2945
2018-07-07T15:21:10.455Z,2900
2018-07-07T15:22:19.458Z,2835
2018-07-07T15:23:28.411Z,2765
2018-07-07T15:24:37.676Z,2815
2018-07-07T15:25:46.623Z,2735
2018-07-07T15:26:55.552Z,2595
2018-07-07T15:28:04.456Z,2790
2018-07-07T15:29:13.364Z,2810
2018-07-07T15:30:22.393Z,2725
2018-07-07T15:31:31.271Z,2710
2018-07-07T15:32:40.509Z,2635
2018-07-07T15:33:49.980Z,2550
2018-07-07T15:34:58.860Z,2600
2018-07-07T15:36:07.943Z,2765
2018-07-07T15:37:16.846Z,2820
2018-07-07T15:38:26.028Z,2970
2018-07-07T15:39:34.954Z,2995
2018-07-07T15:40:43.836Z,2835
2018-07-07T15:41:52.791Z,2805
2018-07-07T15:43:01.736Z,2615
2018-07-07T15:44:10.893Z,2610
2018-07-07T15:45:19.834Z,2495
2018-07-07T15:46:28.714Z,2595
2018-07-07T15:47:37.634Z,2585
2018-07-07T15:48:46.515Z,2675
2018-07-07T15:49:55.713Z,2775
2018-07-07T15:51:04.873Z,2960
2018-07-07T15:52:13.814Z,2800
2018-07-07T15:53:22.748Z,2730
2018-07-07T15:54:31.657Z,2540
2018-07-07T15:55:40.576Z,2635
2018-07-07T15:56:49.454Z,2750
2018-07-07T15:57:58.401Z,2755